sensor_id;sensor_type;location;lat;lon;timestamp;P1;durP1;ratioP1;P2;durP2;ratioP2
61152;SDS011;47030;50.732;4.286;2022-08-07T00:00:33;2.17;;;1.73;;
61152;SDS011;47030;50.732;4.286;2022-08-07T00:03:00;1.48;;;1.37;;
61152;SDS011;47030;50.732;4.286;2022-08-07T00:05:27;1.92;;;1.60;;
61152;SDS011;47030;50.732;4.286;2022-08-07T00:07:53;2.10;;;1.52;;
61152;SDS011;47030;50.732;4.286;2022-08-07T00:10:20;3.90;;;2.33;;
61152;SDS011;47030;50.732;4.286;2022-08-07T00:12:47;2.75;;;1.85;;
61152;SDS011;47030;50.732;4.286;2022-08-07T00:15:13;2.72;;;2.20;;
61152;SDS011;47030;50.732;4.286;2022-08-07T00:17:39;5.85;;;1.77;;
61152;SDS011;47030;50.732;4.286;2022-08-07T00:20:05;5.57;;;1.77;;
61152;SDS011;47030;50.732;4.286;2022-08-07T00:22:31;2.53;;;1.62;;
61152;SDS011;47030;50.732;4.286;2022-08-07T00:24:57;2.85;;;2.15;;
61152;SDS011;47030;50.732;4.286;2022-08-07T00:27:23;2.40;;;1.70;;
61152;SDS011;47030;50.732;4.286;2022-08-07T00:29:49;3.75;;;1.70;;
61152;SDS011;47030;50.732;4.286;2022-08-07T00:32:15;4.45;;;1.85;;
61152;SDS011;47030;50.732;4.286;2022-08-07T00:34:41;3.55;;;1.98;;
61152;SDS011;47030;50.732;4.286;2022-08-07T00:37:07;3.55;;;1.80;;
61152;SDS011;47030;50.732;4.286;2022-08-07T00:39:33;3.60;;;1.87;;
61152;SDS011;47030;50.732;4.286;2022-08-07T00:42:00;3.72;;;2.40;;
61152;SDS011;47030;50.732;4.286;2022-08-07T00:44:27;2.47;;;2.05;;
61152;SDS011;47030;50.732;4.286;2022-08-07T00:46:53;3.10;;;1.80;;
61152;SDS011;47030;50.732;4.286;2022-08-07T00:49:19;3.05;;;2.10;;
61152;SDS011;47030;50.732;4.286;2022-08-07T00:51:45;3.75;;;2.05;;
61152;SDS011;47030;50.732;4.286;2022-08-07T00:54:11;3.92;;;2.00;;
61152;SDS011;47030;50.732;4.286;2022-08-07T00:56:39;2.53;;;1.80;;
61152;SDS011;47030;50.732;4.286;2022-08-07T00:59:05;3.80;;;2.20;;
61152;SDS011;47030;50.732;4.286;2022-08-07T01:01:31;3.95;;;2.05;;
61152;SDS011;47030;50.732;4.286;2022-08-07T01:03:58;5.75;;;2.10;;
61152;SDS011;47030;50.732;4.286;2022-08-07T01:06:24;2.90;;;1.90;;
61152;SDS011;47030;50.732;4.286;2022-08-07T01:08:50;2.92;;;2.05;;
61152;SDS011;47030;50.732;4.286;2022-08-07T01:11:16;2.33;;;1.90;;
61152;SDS011;47030;50.732;4.286;2022-08-07T01:13:42;2.40;;;2.03;;
61152;SDS011;47030;50.732;4.286;2022-08-07T01:16:08;3.55;;;1.90;;
61152;SDS011;47030;50.732;4.286;2022-08-07T01:18:34;3.20;;;2.25;;
61152;SDS011;47030;50.732;4.286;2022-08-07T01:21:14;2.33;;;2.05;;
61152;SDS011;47030;50.732;4.286;2022-08-07T01:23:43;3.55;;;1.77;;
61152;SDS011;47030;50.732;4.286;2022-08-07T01:26:11;4.25;;;2.30;;
61152;SDS011;47030;50.732;4.286;2022-08-07T01:28:40;4.35;;;2.55;;
61152;SDS011;47030;50.732;4.286;2022-08-07T01:31:07;2.75;;;2.15;;
61152;SDS011;47030;50.732;4.286;2022-08-07T01:33:33;3.22;;;2.22;;
61152;SDS011;47030;50.732;4.286;2022-08-07T01:36:00;4.37;;;2.40;;
61152;SDS011;47030;50.732;4.286;2022-08-07T01:38:27;3.28;;;2.45;;
61152;SDS011;47030;50.732;4.286;2022-08-07T01:40:56;3.95;;;2.10;;
61152;SDS011;47030;50.732;4.286;2022-08-07T01:43:23;3.72;;;2.47;;
61152;SDS011;47030;50.732;4.286;2022-08-07T01:45:50;6.85;;;2.50;;
61152;SDS011;47030;50.732;4.286;2022-08-07T01:48:17;3.30;;;2.12;;
61152;SDS011;47030;50.732;4.286;2022-08-07T01:50:44;3.47;;;2.20;;
61152;SDS011;47030;50.732;4.286;2022-08-07T01:53:14;4.10;;;2.47;;
61152;SDS011;47030;50.732;4.286;2022-08-07T01:55:44;3.40;;;2.53;;
61152;SDS011;47030;50.732;4.286;2022-08-07T01:58:17;3.70;;;2.47;;
61152;SDS011;47030;50.732;4.286;2022-08-07T02:00:46;5.43;;;2.53;;
61152;SDS011;47030;50.732;4.286;2022-08-07T02:03:17;3.20;;;2.30;;
61152;SDS011;47030;50.732;4.286;2022-08-07T02:05:53;4.57;;;2.28;;
61152;SDS011;47030;50.732;4.286;2022-08-07T02:08:22;3.70;;;2.55;;
61152;SDS011;47030;50.732;4.286;2022-08-07T02:10:49;2.53;;;2.00;;
61152;SDS011;47030;50.732;4.286;2022-08-07T02:13:17;3.20;;;2.40;;
61152;SDS011;47030;50.732;4.286;2022-08-07T02:15:45;3.08;;;2.60;;
61152;SDS011;47030;50.732;4.286;2022-08-07T02:18:13;3.47;;;2.58;;
61152;SDS011;47030;50.732;4.286;2022-08-07T02:20:41;3.45;;;2.50;;
61152;SDS011;47030;50.732;4.286;2022-08-07T02:23:08;3.53;;;2.15;;
61152;SDS011;47030;50.732;4.286;2022-08-07T02:25:36;3.78;;;2.80;;
61152;SDS011;47030;50.732;4.286;2022-08-07T02:28:04;3.70;;;2.80;;
61152;SDS011;47030;50.732;4.286;2022-08-07T02:30:32;2.92;;;2.50;;
61152;SDS011;47030;50.732;4.286;2022-08-07T02:33:03;3.15;;;2.67;;
61152;SDS011;47030;50.732;4.286;2022-08-07T02:35:30;5.37;;;3.08;;
61152;SDS011;47030;50.732;4.286;2022-08-07T02:37:58;3.40;;;2.37;;
61152;SDS011;47030;50.732;4.286;2022-08-07T02:40:27;4.28;;;2.28;;
61152;SDS011;47030;50.732;4.286;2022-08-07T02:42:54;3.72;;;2.17;;
61152;SDS011;47030;50.732;4.286;2022-08-07T02:45:23;2.60;;;2.28;;
61152;SDS011;47030;50.732;4.286;2022-08-07T02:47:52;5.25;;;2.80;;
61152;SDS011;47030;50.732;4.286;2022-08-07T02:50:18;4.65;;;2.87;;
61152;SDS011;47030;50.732;4.286;2022-08-07T02:55:23;6.78;;;2.85;;
61152;SDS011;47030;50.732;4.286;2022-08-07T02:57:51;4.78;;;3.10;;
61152;SDS011;47030;50.732;4.286;2022-08-07T03:00:18;4.60;;;2.87;;
61152;SDS011;47030;50.732;4.286;2022-08-07T03:02:45;3.85;;;2.70;;
61152;SDS011;47030;50.732;4.286;2022-08-07T03:05:13;3.60;;;2.67;;
61152;SDS011;47030;50.732;4.286;2022-08-07T03:07:39;4.75;;;2.60;;
61152;SDS011;47030;50.732;4.286;2022-08-07T03:10:07;3.37;;;2.50;;
61152;SDS011;47030;50.732;4.286;2022-08-07T03:12:33;3.45;;;2.40;;
61152;SDS011;47030;50.732;4.286;2022-08-07T03:15:00;5.62;;;2.90;;
61152;SDS011;47030;50.732;4.286;2022-08-07T03:17:28;5.12;;;2.80;;
61152;SDS011;47030;50.732;4.286;2022-08-07T03:19:54;4.53;;;2.80;;
61152;SDS011;47030;50.732;4.286;2022-08-07T03:22:21;5.55;;;3.10;;
61152;SDS011;47030;50.732;4.286;2022-08-07T03:24:48;4.53;;;2.85;;
61152;SDS011;47030;50.732;4.286;2022-08-07T03:27:14;3.15;;;2.60;;
61152;SDS011;47030;50.732;4.286;2022-08-07T03:29:44;4.47;;;2.60;;
61152;SDS011;47030;50.732;4.286;2022-08-07T03:32:15;5.78;;;3.30;;
61152;SDS011;47030;50.732;4.286;2022-08-07T03:34:50;3.58;;;3.08;;
61152;SDS011;47030;50.732;4.286;2022-08-07T03:37:18;6.00;;;3.17;;
61152;SDS011;47030;50.732;4.286;2022-08-07T03:39:46;3.62;;;3.20;;
61152;SDS011;47030;50.732;4.286;2022-08-07T03:42:13;6.30;;;3.42;;
61152;SDS011;47030;50.732;4.286;2022-08-07T03:44:41;3.33;;;3.03;;
61152;SDS011;47030;50.732;4.286;2022-08-07T03:47:09;4.80;;;3.22;;
61152;SDS011;47030;50.732;4.286;2022-08-07T03:49:36;4.65;;;3.28;;
61152;SDS011;47030;50.732;4.286;2022-08-07T03:52:03;4.82;;;3.17;;
61152;SDS011;47030;50.732;4.286;2022-08-07T03:54:30;3.83;;;2.90;;
61152;SDS011;47030;50.732;4.286;2022-08-07T03:56:55;4.37;;;2.90;;
61152;SDS011;47030;50.732;4.286;2022-08-07T03:59:22;4.65;;;3.22;;
61152;SDS011;47030;50.732;4.286;2022-08-07T04:01:52;4.90;;;3.20;;
61152;SDS011;47030;50.732;4.286;2022-08-07T04:04:19;12.85;;;3.50;;
61152;SDS011;47030;50.732;4.286;2022-08-07T04:06:46;5.78;;;3.10;;
61152;SDS011;47030;50.732;4.286;2022-08-07T04:09:12;5.37;;;3.25;;
61152;SDS011;47030;50.732;4.286;2022-08-07T04:11:39;4.82;;;3.65;;
61152;SDS011;47030;50.732;4.286;2022-08-07T04:14:06;3.75;;;3.12;;
61152;SDS011;47030;50.732;4.286;2022-08-07T04:16:32;5.22;;;3.28;;
61152;SDS011;47030;50.732;4.286;2022-08-07T04:18:59;5.12;;;3.65;;
61152;SDS011;47030;50.732;4.286;2022-08-07T04:21:25;7.03;;;3.55;;
61152;SDS011;47030;50.732;4.286;2022-08-07T04:23:51;4.55;;;3.05;;
61152;SDS011;47030;50.732;4.286;2022-08-07T04:26:17;4.00;;;3.50;;
61152;SDS011;47030;50.732;4.286;2022-08-07T04:28:43;5.65;;;3.83;;
61152;SDS011;47030;50.732;4.286;2022-08-07T04:31:09;5.15;;;3.58;;
61152;SDS011;47030;50.732;4.286;2022-08-07T04:33:36;4.37;;;3.40;;
61152;SDS011;47030;50.732;4.286;2022-08-07T04:36:03;6.03;;;2.83;;
61152;SDS011;47030;50.732;4.286;2022-08-07T04:38:29;3.65;;;3.15;;
61152;SDS011;47030;50.732;4.286;2022-08-07T04:40:55;4.97;;;3.60;;
61152;SDS011;47030;50.732;4.286;2022-08-07T04:43:25;6.70;;;4.35;;
61152;SDS011;47030;50.732;4.286;2022-08-07T04:45:57;5.28;;;3.85;;
61152;SDS011;47030;50.732;4.286;2022-08-07T04:54:38;4.72;;;3.00;;
61152;SDS011;47030;50.732;4.286;2022-08-07T04:59:59;6.53;;;2.90;;
61152;SDS011;47030;50.732;4.286;2022-08-07T05:05:22;5.43;;;2.33;;
61152;SDS011;47030;50.732;4.286;2022-08-07T05:10:29;2.78;;;2.03;;
61152;SDS011;47030;50.732;4.286;2022-08-07T05:13:06;5.50;;;2.05;;
61152;SDS011;47030;50.732;4.286;2022-08-07T05:15:42;5.97;;;2.33;;
61152;SDS011;47030;50.732;4.286;2022-08-07T05:18:18;2.08;;;1.87;;
61152;SDS011;47030;50.732;4.286;2022-08-07T05:20:50;2.40;;;2.12;;
61152;SDS011;47030;50.732;4.286;2022-08-07T05:23:24;2.03;;;1.80;;
61152;SDS011;47030;50.732;4.286;2022-08-07T05:26:00;3.75;;;1.77;;
61152;SDS011;47030;50.732;4.286;2022-08-07T05:28:27;2.90;;;1.67;;
61152;SDS011;47030;50.732;4.286;2022-08-07T05:30:56;3.28;;;1.70;;
61152;SDS011;47030;50.732;4.286;2022-08-07T05:33:22;2.80;;;2.00;;
61152;SDS011;47030;50.732;4.286;2022-08-07T05:35:50;4.20;;;1.83;;
61152;SDS011;47030;50.732;4.286;2022-08-07T05:38:17;4.68;;;2.17;;
61152;SDS011;47030;50.732;4.286;2022-08-07T05:40:44;3.37;;;2.08;;
61152;SDS011;47030;50.732;4.286;2022-08-07T05:43:10;2.12;;;1.67;;
61152;SDS011;47030;50.732;4.286;2022-08-07T05:45:38;1.83;;;1.42;;
61152;SDS011;47030;50.732;4.286;2022-08-07T05:48:06;3.70;;;1.73;;
61152;SDS011;47030;50.732;4.286;2022-08-07T05:50:32;4.20;;;2.10;;
61152;SDS011;47030;50.732;4.286;2022-08-07T05:53:00;4.93;;;2.67;;
61152;SDS011;47030;50.732;4.286;2022-08-07T05:55:29;3.70;;;2.00;;
61152;SDS011;47030;50.732;4.286;2022-08-07T05:57:57;4.28;;;2.05;;
61152;SDS011;47030;50.732;4.286;2022-08-07T06:00:25;4.37;;;2.10;;
61152;SDS011;47030;50.732;4.286;2022-08-07T06:02:52;3.92;;;2.05;;
61152;SDS011;47030;50.732;4.286;2022-08-07T06:05:20;3.03;;;2.28;;
61152;SDS011;47030;50.732;4.286;2022-08-07T06:07:50;2.97;;;2.17;;
61152;SDS011;47030;50.732;4.286;2022-08-07T06:10:16;2.62;;;1.90;;
61152;SDS011;47030;50.732;4.286;2022-08-07T06:12:42;3.72;;;1.80;;
61152;SDS011;47030;50.732;4.286;2022-08-07T06:15:08;4.00;;;2.50;;
61152;SDS011;47030;50.732;4.286;2022-08-07T06:17:38;5.57;;;2.60;;
61152;SDS011;47030;50.732;4.286;2022-08-07T06:20:04;3.80;;;2.60;;
61152;SDS011;47030;50.732;4.286;2022-08-07T06:22:32;3.20;;;2.50;;
61152;SDS011;47030;50.732;4.286;2022-08-07T06:24:59;3.92;;;2.42;;
61152;SDS011;47030;50.732;4.286;2022-08-07T06:27:25;3.47;;;2.25;;
61152;SDS011;47030;50.732;4.286;2022-08-07T06:29:51;4.50;;;2.72;;
61152;SDS011;47030;50.732;4.286;2022-08-07T06:32:17;4.20;;;2.65;;
61152;SDS011;47030;50.732;4.286;2022-08-07T06:34:43;5.07;;;2.60;;
61152;SDS011;47030;50.732;4.286;2022-08-07T06:37:08;4.07;;;2.60;;
61152;SDS011;47030;50.732;4.286;2022-08-07T06:39:34;5.37;;;2.33;;
61152;SDS011;47030;50.732;4.286;2022-08-07T06:42:04;3.78;;;2.28;;
61152;SDS011;47030;50.732;4.286;2022-08-07T06:44:30;4.12;;;2.45;;
61152;SDS011;47030;50.732;4.286;2022-08-07T06:46:58;4.30;;;2.42;;
61152;SDS011;47030;50.732;4.286;2022-08-07T06:49:24;3.35;;;2.47;;
61152;SDS011;47030;50.732;4.286;2022-08-07T06:51:50;4.70;;;2.55;;
61152;SDS011;47030;50.732;4.286;2022-08-07T06:54:18;4.35;;;2.30;;
61152;SDS011;47030;50.732;4.286;2022-08-07T06:56:45;4.20;;;2.15;;
61152;SDS011;47030;50.732;4.286;2022-08-07T06:59:29;2.97;;;2.00;;
61152;SDS011;47030;50.732;4.286;2022-08-07T07:01:57;2.78;;;2.42;;
61152;SDS011;47030;50.732;4.286;2022-08-07T07:04:25;5.07;;;3.00;;
61152;SDS011;47030;50.732;4.286;2022-08-07T07:06:51;4.97;;;2.42;;
61152;SDS011;47030;50.732;4.286;2022-08-07T07:09:24;3.28;;;2.33;;
61152;SDS011;47030;50.732;4.286;2022-08-07T07:14:40;3.92;;;2.50;;
61152;SDS011;47030;50.732;4.286;2022-08-07T07:17:21;3.12;;;2.30;;
61152;SDS011;47030;50.732;4.286;2022-08-07T07:19:52;2.92;;;2.47;;
61152;SDS011;47030;50.732;4.286;2022-08-07T07:22:21;4.03;;;2.50;;
61152;SDS011;47030;50.732;4.286;2022-08-07T07:24:48;3.78;;;2.80;;
61152;SDS011;47030;50.732;4.286;2022-08-07T07:27:15;4.45;;;2.28;;
61152;SDS011;47030;50.732;4.286;2022-08-07T07:29:46;4.87;;;2.67;;
61152;SDS011;47030;50.732;4.286;2022-08-07T07:32:15;4.32;;;2.70;;
61152;SDS011;47030;50.732;4.286;2022-08-07T07:34:45;3.17;;;2.30;;
61152;SDS011;47030;50.732;4.286;2022-08-07T07:37:13;2.37;;;1.90;;
61152;SDS011;47030;50.732;4.286;2022-08-07T07:39:42;5.12;;;2.42;;
61152;SDS011;47030;50.732;4.286;2022-08-07T07:42:11;2.75;;;2.05;;
61152;SDS011;47030;50.732;4.286;2022-08-07T07:44:38;5.12;;;2.30;;
61152;SDS011;47030;50.732;4.286;2022-08-07T07:47:07;2.47;;;2.10;;
61152;SDS011;47030;50.732;4.286;2022-08-07T07:49:34;2.78;;;1.80;;
61152;SDS011;47030;50.732;4.286;2022-08-07T07:52:03;2.70;;;2.17;;
61152;SDS011;47030;50.732;4.286;2022-08-07T07:54:30;3.58;;;2.15;;
61152;SDS011;47030;50.732;4.286;2022-08-07T07:56:57;2.92;;;2.08;;
61152;SDS011;47030;50.732;4.286;2022-08-07T07:59:24;5.25;;;2.28;;
61152;SDS011;47030;50.732;4.286;2022-08-07T08:01:51;4.07;;;2.22;;
61152;SDS011;47030;50.732;4.286;2022-08-07T08:04:18;3.47;;;2.10;;
61152;SDS011;47030;50.732;4.286;2022-08-07T08:06:46;3.97;;;2.53;;
61152;SDS011;47030;50.732;4.286;2022-08-07T08:09:14;5.62;;;2.08;;
61152;SDS011;47030;50.732;4.286;2022-08-07T08:11:42;2.35;;;2.10;;
61152;SDS011;47030;50.732;4.286;2022-08-07T08:14:10;4.47;;;1.90;;
61152;SDS011;47030;50.732;4.286;2022-08-07T08:16:41;6.07;;;2.50;;
61152;SDS011;47030;50.732;4.286;2022-08-07T08:19:09;3.67;;;2.10;;
61152;SDS011;47030;50.732;4.286;2022-08-07T08:21:39;2.53;;;2.08;;
61152;SDS011;47030;50.732;4.286;2022-08-07T08:24:28;2.83;;;2.20;;
61152;SDS011;47030;50.732;4.286;2022-08-07T08:27:14;3.33;;;2.22;;
61152;SDS011;47030;50.732;4.286;2022-08-07T08:29:45;3.70;;;2.22;;
61152;SDS011;47030;50.732;4.286;2022-08-07T08:32:17;3.50;;;2.10;;
61152;SDS011;47030;50.732;4.286;2022-08-07T08:34:46;3.75;;;2.42;;
61152;SDS011;47030;50.732;4.286;2022-08-07T08:37:14;3.55;;;2.28;;
61152;SDS011;47030;50.732;4.286;2022-08-07T08:39:42;3.03;;;2.40;;
61152;SDS011;47030;50.732;4.286;2022-08-07T08:42:10;4.68;;;2.30;;
61152;SDS011;47030;50.732;4.286;2022-08-07T08:47:55;2.67;;;2.08;;
61152;SDS011;47030;50.732;4.286;2022-08-07T08:50:44;4.35;;;2.12;;
61152;SDS011;47030;50.732;4.286;2022-08-07T08:56:11;3.92;;;2.75;;
61152;SDS011;47030;50.732;4.286;2022-08-07T09:04:13;3.05;;;2.30;;
61152;SDS011;47030;50.732;4.286;2022-08-07T09:10:06;5.15;;;2.58;;
61152;SDS011;47030;50.732;4.286;2022-08-07T09:18:35;3.62;;;2.37;;
61152;SDS011;47030;50.732;4.286;2022-08-07T09:24:16;4.93;;;2.85;;
61152;SDS011;47030;50.732;4.286;2022-08-07T09:29:36;5.03;;;2.50;;
61152;SDS011;47030;50.732;4.286;2022-08-07T09:54:43;3.42;;;2.10;;
61152;SDS011;47030;50.732;4.286;2022-08-07T10:00:02;2.62;;;1.85;;
61152;SDS011;47030;50.732;4.286;2022-08-07T10:11:09;5.00;;;2.17;;
61152;SDS011;47030;50.732;4.286;2022-08-07T10:19:57;4.18;;;2.20;;
61152;SDS011;47030;50.732;4.286;2022-08-07T10:30:12;3.83;;;2.00;;
61152;SDS011;47030;50.732;4.286;2022-08-07T10:35:25;4.05;;;2.05;;
61152;SDS011;47030;50.732;4.286;2022-08-07T10:40:30;3.20;;;2.25;;
61152;SDS011;47030;50.732;4.286;2022-08-07T10:43:11;2.92;;;1.80;;
61152;SDS011;47030;50.732;4.286;2022-08-07T10:45:58;5.57;;;2.15;;
61152;SDS011;47030;50.732;4.286;2022-08-07T10:51:31;2.50;;;1.83;;
61152;SDS011;47030;50.732;4.286;2022-08-07T11:14:05;2.78;;;1.83;;
61152;SDS011;47030;50.732;4.286;2022-08-07T11:16:45;2.45;;;1.60;;
61152;SDS011;47030;50.732;4.286;2022-08-07T11:21:53;4.50;;;2.20;;
61152;SDS011;47030;50.732;4.286;2022-08-07T11:24:47;6.45;;;4.05;;
61152;SDS011;47030;50.732;4.286;2022-08-07T11:27:21;5.85;;;2.58;;
61152;SDS011;47030;50.732;4.286;2022-08-07T11:30:04;3.67;;;2.22;;
61152;SDS011;47030;50.732;4.286;2022-08-07T11:41:48;3.05;;;1.87;;
61152;SDS011;47030;50.732;4.286;2022-08-07T11:44:39;3.50;;;2.10;;
61152;SDS011;47030;50.732;4.286;2022-08-07T11:47:35;4.28;;;2.00;;
61152;SDS011;47030;50.732;4.286;2022-08-07T11:50:21;4.87;;;2.17;;
61152;SDS011;47030;50.732;4.286;2022-08-07T12:04:33;3.62;;;1.50;;
61152;SDS011;47030;50.732;4.286;2022-08-07T12:07:13;2.90;;;1.73;;
61152;SDS011;47030;50.732;4.286;2022-08-07T12:09:58;4.53;;;1.60;;
61152;SDS011;47030;50.732;4.286;2022-08-07T12:15:44;2.70;;;1.92;;
61152;SDS011;47030;50.732;4.286;2022-08-07T12:24:06;2.42;;;1.83;;
61152;SDS011;47030;50.732;4.286;2022-08-07T12:29:28;2.80;;;1.58;;
61152;SDS011;47030;50.732;4.286;2022-08-07T12:32:10;4.15;;;1.90;;
61152;SDS011;47030;50.732;4.286;2022-08-07T12:34:43;3.53;;;1.95;;
61152;SDS011;47030;50.732;4.286;2022-08-07T12:37:12;2.03;;;1.75;;
61152;SDS011;47030;50.732;4.286;2022-08-07T12:39:40;2.25;;;1.75;;
61152;SDS011;47030;50.732;4.286;2022-08-07T12:42:09;2.67;;;1.92;;
61152;SDS011;47030;50.732;4.286;2022-08-07T12:44:37;4.12;;;2.00;;
61152;SDS011;47030;50.732;4.286;2022-08-07T12:47:20;2.45;;;2.00;;
61152;SDS011;47030;50.732;4.286;2022-08-07T12:50:15;3.62;;;1.80;;
61152;SDS011;47030;50.732;4.286;2022-08-07T12:52:56;4.05;;;1.90;;
61152;SDS011;47030;50.732;4.286;2022-08-07T12:55:34;3.97;;;1.70;;
61152;SDS011;47030;50.732;4.286;2022-08-07T12:58:05;9.77;;;2.00;;
61152;SDS011;47030;50.732;4.286;2022-08-07T13:00:51;4.20;;;1.70;;
61152;SDS011;47030;50.732;4.286;2022-08-07T13:03:25;2.05;;;1.52;;
61152;SDS011;47030;50.732;4.286;2022-08-07T13:14:45;2.30;;;1.65;;
61152;SDS011;47030;50.732;4.286;2022-08-07T13:20:02;3.03;;;1.67;;
61152;SDS011;47030;50.732;4.286;2022-08-07T13:22:51;2.00;;;1.60;;
61152;SDS011;47030;50.732;4.286;2022-08-07T13:26:04;3.22;;;1.40;;
61152;SDS011;47030;50.732;4.286;2022-08-07T13:28:39;3.45;;;1.60;;
61152;SDS011;47030;50.732;4.286;2022-08-07T13:31:11;1.50;;;1.40;;
61152;SDS011;47030;50.732;4.286;2022-08-07T13:34:13;2.78;;;1.60;;
61152;SDS011;47030;50.732;4.286;2022-08-07T13:36:45;1.95;;;1.40;;
61152;SDS011;47030;50.732;4.286;2022-08-07T13:41:44;1.75;;;1.48;;
61152;SDS011;47030;50.732;4.286;2022-08-07T13:44:16;3.78;;;1.83;;
61152;SDS011;47030;50.732;4.286;2022-08-07T13:46:46;5.87;;;1.87;;
61152;SDS011;47030;50.732;4.286;2022-08-07T13:49:18;3.55;;;1.85;;
61152;SDS011;47030;50.732;4.286;2022-08-07T13:51:46;2.85;;;1.70;;
61152;SDS011;47030;50.732;4.286;2022-08-07T13:54:14;3.45;;;1.98;;
61152;SDS011;47030;50.732;4.286;2022-08-07T13:56:42;1.85;;;1.65;;
61152;SDS011;47030;50.732;4.286;2022-08-07T13:59:19;3.20;;;1.60;;
61152;SDS011;47030;50.732;4.286;2022-08-07T14:04:17;2.20;;;1.65;;
61152;SDS011;47030;50.732;4.286;2022-08-07T14:06:45;2.22;;;1.40;;
61152;SDS011;47030;50.732;4.286;2022-08-07T14:09:20;2.47;;;1.60;;
61152;SDS011;47030;50.732;4.286;2022-08-07T14:11:49;1.90;;;1.40;;
61152;SDS011;47030;50.732;4.286;2022-08-07T14:14:18;4.18;;;1.83;;
61152;SDS011;47030;50.732;4.286;2022-08-07T14:16:48;4.53;;;2.28;;
61152;SDS011;47030;50.732;4.286;2022-08-07T14:19:19;2.97;;;2.10;;
61152;SDS011;47030;50.732;4.286;2022-08-07T14:21:48;3.95;;;2.03;;
61152;SDS011;47030;50.732;4.286;2022-08-07T14:24:27;2.45;;;1.80;;
61152;SDS011;47030;50.732;4.286;2022-08-07T14:26:58;3.45;;;2.05;;
61152;SDS011;47030;50.732;4.286;2022-08-07T14:29:39;3.30;;;1.90;;
61152;SDS011;47030;50.732;4.286;2022-08-07T14:32:11;7.35;;;1.85;;
61152;SDS011;47030;50.732;4.286;2022-08-07T14:34:38;3.87;;;2.03;;
61152;SDS011;47030;50.732;4.286;2022-08-07T14:37:09;2.40;;;1.70;;
61152;SDS011;47030;50.732;4.286;2022-08-07T14:39:37;2.05;;;1.80;;
61152;SDS011;47030;50.732;4.286;2022-08-07T14:42:06;2.55;;;1.90;;
61152;SDS011;47030;50.732;4.286;2022-08-07T14:44:36;1.73;;;1.52;;
61152;SDS011;47030;50.732;4.286;2022-08-07T14:47:05;3.87;;;1.95;;
61152;SDS011;47030;50.732;4.286;2022-08-07T14:49:33;1.62;;;1.45;;
61152;SDS011;47030;50.732;4.286;2022-08-07T14:52:00;2.10;;;1.70;;
61152;SDS011;47030;50.732;4.286;2022-08-07T14:54:33;3.70;;;1.98;;
61152;SDS011;47030;50.732;4.286;2022-08-07T14:57:02;2.23;;;1.70;;
61152;SDS011;47030;50.732;4.286;2022-08-07T14:59:31;2.22;;;1.50;;
61152;SDS011;47030;50.732;4.286;2022-08-07T15:04:55;2.43;;;1.70;;
61152;SDS011;47030;50.732;4.286;2022-08-07T15:07:21;2.35;;;1.60;;
61152;SDS011;47030;50.732;4.286;2022-08-07T15:09:49;3.40;;;1.67;;
61152;SDS011;47030;50.732;4.286;2022-08-07T15:12:38;4.15;;;2.55;;
61152;SDS011;47030;50.732;4.286;2022-08-07T15:15:07;4.30;;;1.50;;
61152;SDS011;47030;50.732;4.286;2022-08-07T15:17:39;2.62;;;1.62;;
61152;SDS011;47030;50.732;4.286;2022-08-07T15:20:08;2.62;;;1.77;;
61152;SDS011;47030;50.732;4.286;2022-08-07T15:22:44;2.15;;;1.67;;
61152;SDS011;47030;50.732;4.286;2022-08-07T15:25:13;2.87;;;2.00;;
61152;SDS011;47030;50.732;4.286;2022-08-07T15:27:43;3.10;;;2.10;;
61152;SDS011;47030;50.732;4.286;2022-08-07T15:30:12;3.72;;;2.08;;
61152;SDS011;47030;50.732;4.286;2022-08-07T15:32:42;2.87;;;2.00;;
61152;SDS011;47030;50.732;4.286;2022-08-07T15:35:12;1.77;;;1.65;;
61152;SDS011;47030;50.732;4.286;2022-08-07T15:37:40;3.45;;;1.73;;
61152;SDS011;47030;50.732;4.286;2022-08-07T15:40:11;3.60;;;1.98;;
61152;SDS011;47030;50.732;4.286;2022-08-07T15:45:12;4.70;;;2.10;;
61152;SDS011;47030;50.732;4.286;2022-08-07T15:48:02;2.20;;;1.80;;
61152;SDS011;47030;50.732;4.286;2022-08-07T15:50:33;2.90;;;1.95;;
61152;SDS011;47030;50.732;4.286;2022-08-07T15:53:08;3.85;;;1.77;;
61152;SDS011;47030;50.732;4.286;2022-08-07T15:55:38;2.55;;;1.90;;
61152;SDS011;47030;50.732;4.286;2022-08-07T15:58:13;3.33;;;2.17;;
61152;SDS011;47030;50.732;4.286;2022-08-07T16:00:41;3.58;;;2.35;;
61152;SDS011;47030;50.732;4.286;2022-08-07T16:03:09;2.30;;;1.90;;
61152;SDS011;47030;50.732;4.286;2022-08-07T16:05:43;3.30;;;2.05;;
61152;SDS011;47030;50.732;4.286;2022-08-07T16:08:12;4.00;;;2.10;;
61152;SDS011;47030;50.732;4.286;2022-08-07T16:10:42;3.90;;;1.90;;
61152;SDS011;47030;50.732;4.286;2022-08-07T16:25:05;5.65;;;1.90;;
61152;SDS011;47030;50.732;4.286;2022-08-07T16:27:48;2.33;;;1.80;;
61152;SDS011;47030;50.732;4.286;2022-08-07T16:30:23;4.93;;;2.35;;
61152;SDS011;47030;50.732;4.286;2022-08-07T16:33:07;4.20;;;1.90;;
61152;SDS011;47030;50.732;4.286;2022-08-07T16:35:37;4.22;;;2.10;;
61152;SDS011;47030;50.732;4.286;2022-08-07T16:38:18;3.12;;;1.85;;
61152;SDS011;47030;50.732;4.286;2022-08-07T16:50:30;3.87;;;2.25;;
61152;SDS011;47030;50.732;4.286;2022-08-07T16:58:31;6.63;;;2.13;;
61152;SDS011;47030;50.732;4.286;2022-08-07T17:09:46;3.90;;;2.45;;
61152;SDS011;47030;50.732;4.286;2022-08-07T17:12:23;4.65;;;1.90;;
61152;SDS011;47030;50.732;4.286;2022-08-07T17:26:24;3.00;;;1.98;;
61152;SDS011;47030;50.732;4.286;2022-08-07T17:34:56;4.50;;;2.03;;
61152;SDS011;47030;50.732;4.286;2022-08-07T17:37:54;4.22;;;2.50;;
61152;SDS011;47030;50.732;4.286;2022-08-07T17:43:10;4.45;;;2.40;;
61152;SDS011;47030;50.732;4.286;2022-08-07T17:45:42;5.07;;;2.42;;
61152;SDS011;47030;50.732;4.286;2022-08-07T17:48:16;4.55;;;2.35;;
61152;SDS011;47030;50.732;4.286;2022-08-07T17:50:55;2.55;;;2.05;;
61152;SDS011;47030;50.732;4.286;2022-08-07T17:53:48;4.57;;;2.30;;
61152;SDS011;47030;50.732;4.286;2022-08-07T17:56:34;4.62;;;2.20;;
61152;SDS011;47030;50.732;4.286;2022-08-07T17:59:08;3.92;;;2.40;;
61152;SDS011;47030;50.732;4.286;2022-08-07T18:04:22;5.05;;;2.15;;
61152;SDS011;47030;50.732;4.286;2022-08-07T18:07:00;2.80;;;2.10;;
61152;SDS011;47030;50.732;4.286;2022-08-07T18:09:40;2.85;;;2.00;;
61152;SDS011;47030;50.732;4.286;2022-08-07T18:15:17;3.75;;;2.03;;
61152;SDS011;47030;50.732;4.286;2022-08-07T18:17:55;2.78;;;2.30;;
61152;SDS011;47030;50.732;4.286;2022-08-07T18:20:32;4.53;;;2.28;;
61152;SDS011;47030;50.732;4.286;2022-08-07T18:23:09;4.68;;;2.20;;
61152;SDS011;47030;50.732;4.286;2022-08-07T18:25:42;3.65;;;2.22;;
61152;SDS011;47030;50.732;4.286;2022-08-07T18:28:25;2.80;;;2.10;;
61152;SDS011;47030;50.732;4.286;2022-08-07T18:33:56;3.53;;;2.25;;
61152;SDS011;47030;50.732;4.286;2022-08-07T18:42:35;3.47;;;2.30;;
61152;SDS011;47030;50.732;4.286;2022-08-07T18:45:11;4.47;;;2.15;;
61152;SDS011;47030;50.732;4.286;2022-08-07T18:50:47;3.67;;;2.22;;
61152;SDS011;47030;50.732;4.286;2022-08-07T18:56:13;5.10;;;2.25;;
61152;SDS011;47030;50.732;4.286;2022-08-07T18:58:49;3.65;;;2.47;;
61152;SDS011;47030;50.732;4.286;2022-08-07T19:01:40;6.50;;;2.33;;
61152;SDS011;47030;50.732;4.286;2022-08-07T19:17:54;5.70;;;2.60;;
61152;SDS011;47030;50.732;4.286;2022-08-07T19:20:32;4.55;;;2.42;;
61152;SDS011;47030;50.732;4.286;2022-08-07T19:23:01;3.62;;;2.40;;
61152;SDS011;47030;50.732;4.286;2022-08-07T19:25:52;4.15;;;2.20;;
61152;SDS011;47030;50.732;4.286;2022-08-07T19:28:21;6.87;;;2.70;;
61152;SDS011;47030;50.732;4.286;2022-08-07T19:30:58;4.95;;;2.50;;
61152;SDS011;47030;50.732;4.286;2022-08-07T19:33:38;7.03;;;3.00;;
61152;SDS011;47030;50.732;4.286;2022-08-07T19:36:07;3.85;;;2.40;;
61152;SDS011;47030;50.732;4.286;2022-08-07T19:38:37;6.03;;;2.53;;
61152;SDS011;47030;50.732;4.286;2022-08-07T19:41:05;4.97;;;2.58;;